IGO791 VOHS-VABB
Flight info
| Callsign | IGO791 |
|---|---|
| Flight time | N/A |
| Altitude | 36000 |
| Route | TAMIV5 APUSU W18 OPAKA EMRAK2A |
| Aircraft | A21N/M-SDE2E3FGHIRWXY/LB1 |
Departure
| Time | 2026-04-25 09:37 |
|---|---|
| Airport | Rajiv Gandhi International Airport (VOHS) |
Arrival
| Time | N/A |
|---|---|
| Airport | Chhatrapati Shivaji Maharaj International Airport (VABB) |
| Time | Latitude | Longitude | Altitude | Speed | Heading |
|---|---|---|---|---|---|
| 2026-04-25 08:21 | 17.23432 | 78.42970 | 1980 ft | 0 kts | 360° |
| 2026-04-25 09:17 | 17.23414 | 78.42970 | 1980 ft | 3 kts | 360° |
| 2026-04-25 09:17 | 17.23393 | 78.42970 | 1980 ft | 3 kts | 360° |
| 2026-04-25 09:17 | 17.23373 | 78.42970 | 1980 ft | 3 kts | 360° |
| 2026-04-25 09:18 | 17.23352 | 78.42970 | 1980 ft | 3 kts | 4° |
| 2026-04-25 09:18 | 17.23336 | 78.42962 | 1979 ft | 3 kts | 58° |
| 2026-04-25 09:18 | 17.23331 | 78.42943 | 1980 ft | 3 kts | 94° |
| 2026-04-25 09:18 | 17.23331 | 78.42942 | 1980 ft | 0 kts | 94° |
| 2026-04-25 09:22 | 17.23331 | 78.42968 | 1982 ft | 3 kts | 90° |
| 2026-04-25 09:22 | 17.23331 | 78.42992 | 1981 ft | 17 kts | 89° |
| 2026-04-25 09:22 | 17.23330 | 78.43106 | 1980 ft | 13 kts | 91° |
| 2026-04-25 09:22 | 17.23294 | 78.43161 | 1980 ft | 13 kts | 163° |
| 2026-04-25 09:23 | 17.23227 | 78.43162 | 1979 ft | 4 kts | 188° |
| 2026-04-25 09:23 | 17.23177 | 78.43160 | 1982 ft | 0 kts | 180° |
| 2026-04-25 09:24 | 17.23166 | 78.43161 | 1981 ft | 6 kts | 179° |
| 2026-04-25 09:24 | 17.23105 | 78.43187 | 1980 ft | 15 kts | 138° |
| 2026-04-25 09:24 | 17.23087 | 78.43321 | 1979 ft | 32 kts | 89° |
| 2026-04-25 09:25 | 17.23090 | 78.43532 | 1980 ft | 26 kts | 90° |
| 2026-04-25 09:25 | 17.23092 | 78.43707 | 1980 ft | 30 kts | 88° |
| 2026-04-25 09:25 | 17.23097 | 78.43912 | 1980 ft | 30 kts | 90° |
| 2026-04-25 09:25 | 17.23098 | 78.44131 | 1981 ft | 29 kts | 89° |
| 2026-04-25 09:26 | 17.23102 | 78.44382 | 1981 ft | 33 kts | 90° |
| 2026-04-25 09:26 | 17.23109 | 78.44594 | 1981 ft | 27 kts | 86° |
| 2026-04-25 09:26 | 17.23108 | 78.44764 | 1980 ft | 20 kts | 88° |
| 2026-04-25 09:26 | 17.23109 | 78.44874 | 1979 ft | 7 kts | 93° |
| 2026-04-25 09:27 | 17.23106 | 78.44929 | 1979 ft | 11 kts | 88° |
| 2026-04-25 09:27 | 17.23112 | 78.45023 | 1980 ft | 18 kts | 88° |
| 2026-04-25 09:27 | 17.23114 | 78.45137 | 1982 ft | 13 kts | 88° |
| 2026-04-25 09:27 | 17.23115 | 78.45205 | 1980 ft | 0 kts | 90° |
| 2026-04-25 09:29 | 17.23114 | 78.45220 | 1981 ft | 0 kts | 92° |
| 2026-04-25 09:30 | 17.23114 | 78.45233 | 1980 ft | 3 kts | 91° |
| 2026-04-25 09:30 | 17.23113 | 78.45255 | 1980 ft | 3 kts | 94° |
| 2026-04-25 09:30 | 17.23107 | 78.45287 | 1981 ft | 6 kts | 106° |
| 2026-04-25 09:30 | 17.23093 | 78.45306 | 1982 ft | 1 kts | 134° |
| 2026-04-25 09:31 | 17.23086 | 78.45310 | 1981 ft | 3 kts | 148° |
| 2026-04-25 09:31 | 17.23081 | 78.45312 | 1981 ft | 0 kts | 154° |
| 2026-04-25 09:31 | 17.23062 | 78.45317 | 1981 ft | 7 kts | 167° |
| 2026-04-25 09:32 | 17.23028 | 78.45319 | 1980 ft | 3 kts | 180° |
| 2026-04-25 09:32 | 17.23022 | 78.45319 | 1980 ft | 0 kts | 181° |
| 2026-04-25 09:34 | 17.22988 | 78.45308 | 1980 ft | 9 kts | 201° |
| 2026-04-25 09:34 | 17.22922 | 78.45243 | 1982 ft | 11 kts | 236° |
| 2026-04-25 09:35 | 17.22908 | 78.45184 | 1981 ft | 1 kts | 271° |
| 2026-04-25 09:36 | 17.22908 | 78.45179 | 1981 ft | 4 kts | 269° |
| 2026-04-25 09:36 | 17.22908 | 78.45105 | 1981 ft | 16 kts | 269° |
| 2026-04-25 09:37 | 17.22903 | 78.44724 | 1980 ft | 92 kts | 269° |
| 2026-04-25 09:37 | 17.22890 | 78.43781 | 1981 ft | 167 kts | 269° |
| 2026-04-25 09:37 | 17.22863 | 78.42331 | 2184 ft | 225 kts | 268° |
| 2026-04-25 09:37 | 17.22831 | 78.40763 | 3359 ft | 208 kts | 269° |
| 2026-04-25 09:38 | 17.22834 | 78.39191 | 4193 ft | 228 kts | 270° |
| 2026-04-25 09:38 | 17.22830 | 78.37433 | 4908 ft | 256 kts | 269° |
| 2026-04-25 09:38 | 17.22813 | 78.35464 | 5697 ft | 286 kts | 270° |
| 2026-04-25 09:38 | 17.22796 | 78.33239 | 6443 ft | 313 kts | 270° |
| 2026-04-25 09:39 | 17.22785 | 78.31023 | 8336 ft | 297 kts | 270° |
| 2026-04-25 09:39 | 17.22765 | 78.28931 | 10099 ft | 291 kts | 270° |
| 2026-04-25 09:39 | 17.22737 | 78.26759 | 11080 ft | 308 kts | 271° |
| 2026-04-25 09:40 | 17.24001 | 78.22252 | 12799 ft | 343 kts | 292° |
| 2026-04-25 09:40 | 17.24822 | 78.19825 | 13645 ft | 365 kts | 287° |
| 2026-04-25 09:40 | 17.25406 | 78.17119 | 13952 ft | 402 kts | 281° |
| 2026-04-25 09:40 | 17.25881 | 78.14069 | 13958 ft | 446 kts | 279° |
| 2026-04-25 09:41 | 17.26448 | 78.10970 | 15735 ft | 410 kts | 282° |
| 2026-04-25 09:41 | 17.27085 | 78.08130 | 17285 ft | 395 kts | 283° |
| 2026-04-25 09:41 | 17.27714 | 78.05314 | 18217 ft | 402 kts | 282° |
| 2026-04-25 09:41 | 17.28282 | 78.02423 | 18862 ft | 408 kts | 280° |
| 2026-04-25 09:42 | 17.28847 | 77.99505 | 19701 ft | 410 kts | 280° |
| 2026-04-25 09:42 | 17.29458 | 77.96568 | 20414 ft | 416 kts | 280° |
| 2026-04-25 09:42 | 17.30086 | 77.93599 | 21140 ft | 419 kts | 280° |
| 2026-04-25 09:42 | 17.30697 | 77.90603 | 21868 ft | 424 kts | 279° |
| 2026-04-25 09:43 | 17.31304 | 77.87566 | 22545 ft | 428 kts | 279° |
| 2026-04-25 09:43 | 17.31928 | 77.84505 | 23246 ft | 432 kts | 279° |
| 2026-04-25 09:43 | 17.32567 | 77.81416 | 23849 ft | 436 kts | 278° |
| 2026-04-25 09:43 | 17.33203 | 77.78306 | 24457 ft | 438 kts | 278° |
| 2026-04-25 09:44 | 17.33836 | 77.75175 | 25098 ft | 440 kts | 278° |
| 2026-04-25 09:44 | 17.34472 | 77.72041 | 25686 ft | 442 kts | 278° |
| 2026-04-25 09:44 | 17.35117 | 77.68880 | 26248 ft | 445 kts | 278° |
| 2026-04-25 09:44 | 17.35763 | 77.65708 | 26836 ft | 447 kts | 278° |
| 2026-04-25 09:45 | 17.36408 | 77.62525 | 27391 ft | 449 kts | 278° |
| 2026-04-25 09:45 | 17.37057 | 77.59321 | 27992 ft | 450 kts | 278° |
| 2026-04-25 09:45 | 17.37706 | 77.56127 | 28804 ft | 445 kts | 278° |
| 2026-04-25 09:45 | 17.38345 | 77.52980 | 29658 ft | 440 kts | 277° |
| 2026-04-25 09:46 | 17.38978 | 77.49848 | 30353 ft | 437 kts | 277° |
| 2026-04-25 09:46 | 17.39604 | 77.46740 | 30880 ft | 437 kts | 277° |
| 2026-04-25 09:46 | 17.40233 | 77.43625 | 31376 ft | 436 kts | 277° |
| 2026-04-25 09:46 | 17.40861 | 77.40521 | 31879 ft | 435 kts | 276° |
| 2026-04-25 09:47 | 17.41486 | 77.37418 | 32378 ft | 435 kts | 276° |
| 2026-04-25 09:47 | 17.41887 | 77.35432 | 34014 ft | 434 kts | 281° |
| 2026-04-25 09:47 | 17.42719 | 77.31305 | 34014 ft | 447 kts | 278° |
| 2026-04-25 09:47 | 17.43357 | 77.28086 | 34147 ft | 456 kts | 278° |
| 2026-04-25 09:48 | 17.43936 | 77.25198 | 34130 ft | 467 kts | 278° |
| 2026-04-25 09:48 | 17.44143 | 77.24178 | 34130 ft | 471 kts | 278° |
| 2026-04-25 09:48 | 17.45503 | 77.17496 | 32895 ft | 476 kts | 276° |
| 2026-04-25 09:49 | 17.46173 | 77.14101 | 33017 ft | 476 kts | 276° |
| 2026-04-25 09:49 | 17.46624 | 77.11814 | 33102 ft | 475 kts | 276° |
| 2026-04-25 09:49 | 17.47525 | 77.07333 | 33268 ft | 475 kts | 277° |
| 2026-04-25 09:49 | 17.48208 | 77.03948 | 33396 ft | 474 kts | 276° |
| 2026-04-25 09:50 | 17.49316 | 76.98364 | 33607 ft | 471 kts | 276° |
| 2026-04-25 09:50 | 17.50201 | 76.93902 | 33784 ft | 473 kts | 276° |
| 2026-04-25 09:50 | 17.50660 | 76.91624 | 33869 ft | 472 kts | 276° |
| 2026-04-25 09:51 | 17.51994 | 76.84923 | 33893 ft | 473 kts | 276° |
| 2026-04-25 09:51 | 17.53331 | 76.78175 | 33894 ft | 473 kts | 276° |
| 2026-04-25 09:52 | 17.55099 | 76.71516 | 33915 ft | 484 kts | 289° |
| 2026-04-25 09:52 | 17.56841 | 76.68453 | 33916 ft | 495 kts | 301° |
| 2026-04-25 09:52 | 17.59195 | 76.65770 | 33915 ft | 507 kts | 313° |
| 2026-04-25 09:53 | 17.62098 | 76.63612 | 33920 ft | 519 kts | 324° |
| 2026-04-25 09:53 | 17.65309 | 76.61837 | 33909 ft | 521 kts | 326° |
| 2026-04-25 09:53 | 17.71770 | 76.58373 | 33912 ft | 521 kts | 326° |
| 2026-04-25 09:54 | 17.78185 | 76.54842 | 33921 ft | 520 kts | 326° |
| 2026-04-25 09:54 | 17.84619 | 76.51358 | 33924 ft | 520 kts | 326° |
| 2026-04-25 09:55 | 17.91043 | 76.47838 | 33930 ft | 520 kts | 326° |
| 2026-04-25 09:55 | 17.97468 | 76.44338 | 33934 ft | 520 kts | 326° |
| 2026-04-25 09:56 | 18.03868 | 76.40871 | 33934 ft | 522 kts | 327° |
| 2026-04-25 09:56 | 18.10394 | 76.37498 | 33931 ft | 522 kts | 327° |
| 2026-04-25 09:57 | 18.16872 | 76.34037 | 33932 ft | 522 kts | 326° |
| 2026-04-25 09:57 | 18.23384 | 76.30627 | 33936 ft | 523 kts | 327° |
| 2026-04-25 09:58 | 18.29883 | 76.27176 | 33931 ft | 523 kts | 326° |
| 2026-04-25 09:58 | 18.36390 | 76.23744 | 33932 ft | 523 kts | 326° |
| 2026-04-25 09:59 | 18.42890 | 76.20300 | 33935 ft | 523 kts | 326° |
| 2026-04-25 09:59 | 18.49263 | 76.16672 | 33941 ft | 509 kts | 314° |
| 2026-04-25 10:00 | 18.51628 | 76.14025 | 33959 ft | 488 kts | 295° |
| 2026-04-25 10:00 | 18.53053 | 76.10868 | 33950 ft | 473 kts | 283° |
| 2026-04-25 10:00 | 18.54595 | 76.04229 | 33933 ft | 465 kts | 275° |
| 2026-04-25 10:01 | 18.56175 | 75.97590 | 33938 ft | 470 kts | 281° |
| 2026-04-25 10:01 | 18.58104 | 75.91009 | 33932 ft | 467 kts | 278° |
| 2026-04-25 10:02 | 18.59745 | 75.84453 | 33931 ft | 467 kts | 279° |
| 2026-04-25 10:02 | 18.61585 | 75.77861 | 33932 ft | 467 kts | 279° |
| 2026-04-25 10:03 | 18.63308 | 75.71225 | 33924 ft | 466 kts | 279° |
| 2026-04-25 10:03 | 18.65077 | 75.64698 | 33926 ft | 466 kts | 279° |
| 2026-04-25 10:04 | 18.66815 | 75.58108 | 33927 ft | 466 kts | 279° |
| 2026-04-25 10:04 | 18.68573 | 75.51529 | 33910 ft | 466 kts | 279° |
| 2026-04-25 10:05 | 18.70316 | 75.44945 | 33911 ft | 465 kts | 279° |
| 2026-04-25 10:05 | 18.72058 | 75.38377 | 33909 ft | 465 kts | 279° |
| 2026-04-25 10:06 | 18.73799 | 75.31799 | 33905 ft | 465 kts | 279° |
| 2026-04-25 10:06 | 18.75523 | 75.25271 | 33907 ft | 464 kts | 279° |
| 2026-04-25 10:07 | 18.77252 | 75.18720 | 33905 ft | 464 kts | 279° |
| 2026-04-25 10:07 | 18.78978 | 75.12165 | 33901 ft | 463 kts | 279° |
| 2026-04-25 10:08 | 18.80206 | 75.08984 | 33918 ft | 478 kts | 295° |
| 2026-04-25 10:08 | 18.82365 | 75.06240 | 33915 ft | 495 kts | 308° |
| 2026-04-25 10:08 | 18.87856 | 75.01691 | 33902 ft | 506 kts | 317° |
| 2026-04-25 10:09 | 18.93731 | 74.97579 | 33904 ft | 508 kts | 319° |
| 2026-04-25 10:09 | 18.99701 | 74.93557 | 33907 ft | 508 kts | 320° |
| 2026-04-25 10:10 | 19.05689 | 74.89561 | 33905 ft | 509 kts | 320° |
| 2026-04-25 10:10 | 19.11573 | 74.85669 | 33881 ft | 478 kts | 320° |
| 2026-04-25 10:11 | 19.14220 | 74.83741 | 33893 ft | 440 kts | 306° |
| 2026-04-25 10:11 | 19.15952 | 74.81336 | 33957 ft | 402 kts | 285° |
| 2026-04-25 10:11 | 19.16749 | 74.78562 | 33939 ft | 391 kts | 272° |
| 2026-04-25 10:11 | 19.17034 | 74.75700 | 33901 ft | 391 kts | 267° |
| 2026-04-25 10:12 | 19.17086 | 74.69905 | 33902 ft | 397 kts | 263° |
| 2026-04-25 10:12 | 19.17430 | 74.64000 | 33936 ft | 417 kts | 279° |
| 2026-04-25 10:13 | 19.18387 | 74.61063 | 33892 ft | 426 kts | 283° |
| 2026-04-25 10:13 | 19.20359 | 74.55098 | 33878 ft | 433 kts | 281° |
| 2026-04-25 10:14 | 19.22283 | 74.48999 | 33880 ft | 437 kts | 282° |
| 2026-04-25 10:14 | 19.23273 | 74.46012 | 33837 ft | 426 kts | 282° |
| 2026-04-25 10:14 | 19.24225 | 74.43058 | 33510 ft | 421 kts | 281° |
| 2026-04-25 10:14 | 19.25134 | 74.40169 | 33012 ft | 409 kts | 282° |
| 2026-04-25 10:15 | 19.26046 | 74.37296 | 31618 ft | 417 kts | 283° |
| 2026-04-25 10:15 | 19.26978 | 74.34392 | 30220 ft | 426 kts | 284° |
| 2026-04-25 10:15 | 19.27946 | 74.31395 | 29121 ft | 437 kts | 284° |
| 2026-04-25 10:15 | 19.28938 | 74.28293 | 28854 ft | 450 kts | 285° |
| 2026-04-25 10:16 | 19.29939 | 74.25158 | 28853 ft | 442 kts | 285° |
| 2026-04-25 10:16 | 19.30901 | 74.22181 | 28887 ft | 412 kts | 285° |
| 2026-04-25 10:16 | 19.31807 | 74.19353 | 27941 ft | 408 kts | 285° |
| 2026-04-25 10:16 | 19.32724 | 74.16427 | 25938 ft | 431 kts | 286° |
| 2026-04-25 10:17 | 19.33704 | 74.13326 | 23816 ft | 457 kts | 288° |
| 2026-04-25 10:17 | 19.34772 | 74.10025 | 22562 ft | 480 kts | 288° |
| 2026-04-25 10:17 | 19.35838 | 74.06711 | 22451 ft | 470 kts | 288° |
| 2026-04-25 10:17 | 19.36863 | 74.03467 | 22340 ft | 461 kts | 288° |
| 2026-04-25 10:18 | 19.37882 | 74.00233 | 21707 ft | 465 kts | 288° |
| 2026-04-25 10:18 | 19.38919 | 73.96985 | 21352 ft | 463 kts | 288° |
| 2026-04-25 10:18 | 19.39939 | 73.93796 | 21336 ft | 450 kts | 288° |
| 2026-04-25 10:18 | 19.40873 | 73.90738 | 21309 ft | 422 kts | 284° |
| 2026-04-25 10:19 | 19.41208 | 73.87761 | 21334 ft | 396 kts | 266° |
| 2026-04-25 10:19 | 19.40756 | 73.84979 | 21371 ft | 374 kts | 250° |
| 2026-04-25 10:19 | 19.39711 | 73.82524 | 21259 ft | 361 kts | 241° |
| 2026-04-25 10:19 | 19.38504 | 73.80183 | 20683 ft | 364 kts | 240° |
| 2026-04-25 10:20 | 19.37290 | 73.77857 | 20096 ft | 367 kts | 241° |
| 2026-04-25 10:20 | 19.36060 | 73.75472 | 19581 ft | 369 kts | 241° |
| 2026-04-25 10:20 | 19.34836 | 73.73083 | 19092 ft | 370 kts | 241° |
| 2026-04-25 10:20 | 19.33599 | 73.70682 | 18599 ft | 372 kts | 241° |
| 2026-04-25 10:21 | 19.32349 | 73.68266 | 18108 ft | 374 kts | 241° |
| 2026-04-25 10:21 | 19.31099 | 73.65843 | 17572 ft | 375 kts | 241° |
| 2026-04-25 10:21 | 19.29848 | 73.63414 | 17052 ft | 376 kts | 243° |
| 2026-04-25 10:21 | 19.29076 | 73.60794 | 16515 ft | 374 kts | 267° |
| 2026-04-25 10:22 | 19.29274 | 73.58051 | 15926 ft | 376 kts | 282° |
| 2026-04-25 10:22 | 19.29682 | 73.56262 | 15532 ft | 378 kts | 286° |
| 2026-04-25 10:22 | 19.30718 | 73.52704 | 14862 ft | 379 kts | 289° |
| 2026-04-25 10:22 | 19.31557 | 73.50058 | 14360 ft | 379 kts | 289° |
| 2026-04-25 10:23 | 19.32413 | 73.47412 | 13774 ft | 382 kts | 290° |
| 2026-04-25 10:23 | 19.33081 | 73.44717 | 13054 ft | 387 kts | 274° |
| 2026-04-25 10:23 | 19.32754 | 73.41895 | 12359 ft | 389 kts | 249° |
| 2026-04-25 10:23 | 19.31365 | 73.39468 | 11695 ft | 388 kts | 224° |
| 2026-04-25 10:24 | 19.29173 | 73.37836 | 11038 ft | 387 kts | 202° |
| 2026-04-25 10:24 | 19.26657 | 73.36895 | 10771 ft | 376 kts | 194° |
| 2026-04-25 10:24 | 19.24173 | 73.36225 | 10783 ft | 362 kts | 191° |
| 2026-04-25 10:24 | 19.21647 | 73.35621 | 10797 ft | 387 kts | 191° |
| 2026-04-25 10:25 | 19.18995 | 73.35024 | 10773 ft | 389 kts | 190° |
| 2026-04-25 10:25 | 19.16398 | 73.34444 | 10783 ft | 373 kts | 190° |
| 2026-04-25 10:25 | 19.13885 | 73.33887 | 10790 ft | 368 kts | 190° |
| 2026-04-25 10:25 | 19.11380 | 73.33335 | 10795 ft | 366 kts | 190° |
| 2026-04-25 10:26 | 19.08880 | 73.32784 | 10795 ft | 368 kts | 190° |
| 2026-04-25 10:26 | 19.06365 | 73.32230 | 10798 ft | 370 kts | 190° |
| 2026-04-25 10:26 | 19.03827 | 73.31673 | 10546 ft | 378 kts | 190° |
| 2026-04-25 10:26 | 19.01257 | 73.31110 | 10442 ft | 371 kts | 190° |
| 2026-04-25 10:27 | 18.98774 | 73.30560 | 10454 ft | 359 kts | 190° |
| 2026-04-25 10:27 | 18.96393 | 73.30034 | 10477 ft | 350 kts | 190° |
| 2026-04-25 10:27 | 18.94165 | 73.29089 | 10534 ft | 343 kts | 216° |
| 2026-04-25 10:27 | 18.93042 | 73.27939 | 10573 ft | 338 kts | 235° |